Time;durP1;ratioP1;P1;durP2;ratioP2;P2;SDS_P1;SDS_P2;PMS_P1;PMS_P2;Temp;Humidity;BMP_temperature;BMP_pressure;BME280_temperature;BME280_humidity;BME280_pressure;Samples;Min_cycle;Max_cycle;Signal;HPM_P1;HPM_P2
2023/09/01 00:01:49;;;;;;;5.50;1.50;;;;;;;17.87;100.00;100482.50;5589698;31;34208;-69
2023/09/01 00:04:55;;;;;;;4.30;1.70;;;;;;;17.86;100.00;100488.94;5589506;31;35341;-69
2023/09/01 00:07:57;;;;;;;9.02;1.90;;;;;;;17.82;100.00;100487.69;5589455;31;33820;-68
2023/09/01 00:11:00;;;;;;;3.47;1.65;;;;;;;17.85;100.00;100487.28;5589659;31;34735;-68
2023/09/01 00:14:04;;;;;;;6.22;1.65;;;;;;;17.74;100.00;100487.94;5589406;31;34135;-68
2023/09/01 00:17:08;;;;;;;2.50;1.60;;;;;;;17.70;100.00;100484.03;5589392;31;33855;-68
2023/09/01 00:20:11;;;;;;;3.25;1.75;;;;;;;17.63;100.00;100480.53;5588546;31;33907;-68
2023/09/01 00:23:14;;;;;;;3.92;1.90;;;;;;;17.61;100.00;100479.94;5589227;31;33882;-68
2023/09/01 00:26:17;;;;;;;4.03;1.95;;;;;;;17.56;100.00;100482.41;5589247;31;33801;-68
2023/09/01 00:29:21;;;;;;;3.45;1.80;;;;;;;17.36;100.00;100485.13;5589140;31;33869;-67
2023/09/01 00:32:25;;;;;;;2.92;1.67;;;;;;;17.17;100.00;100492.16;5589167;31;34707;-68
2023/09/01 00:35:28;;;;;;;3.00;1.85;;;;;;;17.08;100.00;100495.25;5589196;31;33934;-68
2023/09/01 00:38:32;;;;;;;4.93;1.90;;;;;;;16.98;100.00;100492.19;5589342;31;33900;-68
2023/09/01 00:41:35;;;;;;;5.03;2.05;;;;;;;16.79;100.00;100489.28;5588931;31;33896;-68
2023/09/01 00:44:38;;;;;;;3.40;1.87;;;;;;;16.77;100.00;100496.69;5589190;31;33848;-68
2023/09/01 00:47:41;;;;;;;4.32;1.70;;;;;;;16.89;100.00;100495.03;5588087;31;33867;-68
2023/09/01 00:50:47;;;;;;;2.58;1.42;;;;;;;16.82;100.00;100494.22;5588707;31;35397;-68
2023/09/01 00:53:51;;;;;;;4.80;2.00;;;;;;;16.70;100.00;100498.53;5588895;31;34498;-68
2023/09/01 00:56:54;;;;;;;3.50;1.80;;;;;;;16.48;100.00;100494.37;5588803;31;33823;-68
2023/09/01 00:59:57;;;;;;;2.67;1.90;;;;;;;16.33;100.00;100499.88;5588734;31;34610;-68
2023/09/01 01:03:05;;;;;;;5.75;1.70;;;;;;;16.18;100.00;100491.19;5588443;31;35457;-68
2023/09/01 01:06:18;;;;;;;3.90;1.65;;;;;;;16.07;100.00;100489.91;5587925;31;33965;-69
2023/09/01 01:09:45;;;;;;;8.57;1.75;;;;;;;15.99;100.00;100503.47;5588525;31;34586;-68
2023/09/01 01:13:04;;;;;;;2.92;1.80;;;;;;;15.93;100.00;100501.59;5588616;31;34558;-68
2023/09/01 01:16:07;;;;;;;10.82;2.50;;;;;;;15.82;100.00;100498.69;5588491;31;33861;-68
2023/09/01 01:19:27;;;;;;;3.70;1.75;;;;;;;15.77;100.00;100506.47;5588736;31;34075;-68
2023/09/01 01:23:09;;;;;;;3.50;1.90;;;;;;;15.71;100.00;100493.88;5588271;31;33789;-68
2023/09/01 01:26:16;;;;;;;4.57;2.00;;;;;;;15.62;100.00;100503.94;5576431;31;33736;-68
2023/09/01 01:29:18;;;;;;;3.87;1.87;;;;;;;15.58;100.00;100516.88;5588623;31;33886;-68
2023/09/01 01:32:21;;;;;;;3.00;1.87;;;;;;;15.50;100.00;100511.63;5588165;31;33850;-67
2023/09/01 01:35:31;;;;;;;3.30;2.00;;;;;;;15.42;100.00;100513.62;5588007;31;34119;-68
2023/09/01 01:38:39;;;;;;;3.95;1.87;;;;;;;15.41;100.00;100507.47;5588040;31;33838;-68
2023/09/01 01:41:52;;;;;;;4.53;1.67;;;;;;;15.30;100.00;100499.97;5587128;31;33966;-68
2023/09/01 01:44:58;;;;;;;4.75;1.90;;;;;;;15.22;100.00;100503.66;5587051;31;34516;-68
2023/09/01 01:48:00;;;;;;;5.10;2.03;;;;;;;15.14;100.00;100505.66;5587842;31;34493;-68
2023/09/01 01:51:05;;;;;;;4.03;1.85;;;;;;;15.08;100.00;100499.22;5586931;31;33805;-68
2023/09/01 01:54:08;;;;;;;3.78;2.30;;;;;;;15.05;100.00;100502.28;5587771;31;33861;-68
2023/09/01 01:57:14;;;;;;;4.00;2.08;;;;;;;15.00;100.00;100502.03;5587696;31;34578;-68
2023/09/01 02:00:18;;;;;;;4.53;2.15;;;;;;;14.95;100.00;100504.47;5588272;31;33884;-68
2023/09/01 02:03:21;;;;;;;3.67;2.10;;;;;;;14.87;100.00;100504.59;5590532;31;33834;-68
2023/09/01 02:06:24;;;;;;;3.67;2.25;;;;;;;14.85;100.00;100517.31;5590404;31;34039;-68
2023/09/01 02:09:27;;;;;;;2.95;2.00;;;;;;;14.81;100.00;100524.06;5589789;31;34537;-68
2023/09/01 02:12:30;;;;;;;3.50;2.30;;;;;;;14.75;100.00;100519.50;5590021;31;33761;-68
2023/09/01 02:15:32;;;;;;;6.95;2.50;;;;;;;14.71;100.00;100523.56;5589947;31;33794;-68
2023/09/01 02:18:35;;;;;;;4.00;2.17;;;;;;;14.72;100.00;100519.84;5590433;31;33749;-68
2023/09/01 02:21:38;;;;;;;8.55;2.30;;;;;;;14.70;100.00;100527.25;5590376;31;33825;-68
2023/09/01 02:24:41;;;;;;;4.07;2.10;;;;;;;14.69;100.00;100528.25;5590226;31;34350;-68
2023/09/01 02:27:45;;;;;;;3.40;1.95;;;;;;;14.67;100.00;100531.09;5590428;31;34270;-68
2023/09/01 02:30:48;;;;;;;5.37;2.00;;;;;;;14.63;100.00;100529.84;5590282;31;33896;-68
2023/09/01 02:33:51;;;;;;;3.80;2.12;;;;;;;14.60;100.00;100529.41;5590760;31;34069;-68
2023/09/01 02:36:53;;;;;;;3.95;2.00;;;;;;;14.56;100.00;100528.97;5590106;31;34039;-68
2023/09/01 02:39:57;;;;;;;5.45;2.20;;;;;;;14.55;100.00;100524.63;5590318;31;33794;-68
2023/09/01 02:43:00;;;;;;;5.35;2.22;;;;;;;14.52;100.00;100527.69;5590110;31;33945;-68
2023/09/01 02:46:04;;;;;;;4.43;2.33;;;;;;;14.54;100.00;100530.16;5590031;31;33818;-68
2023/09/01 02:49:08;;;;;;;6.37;2.35;;;;;;;14.53;100.00;100531.16;5590189;31;33970;-68
2023/09/01 02:52:11;;;;;;;5.37;2.40;;;;;;;14.49;100.00;100527.22;5590093;31;33852;-68
2023/09/01 02:55:17;;;;;;;4.28;2.20;;;;;;;14.45;100.00;100523.28;5590019;31;34581;-68
2023/09/01 02:58:20;;;;;;;5.43;2.40;;;;;;;14.45;100.00;100534.78;5589255;31;33768;-68
2023/09/01 03:01:23;;;;;;;4.57;2.10;;;;;;;14.45;100.00;100529.44;5589909;31;33882;-68
2023/09/01 03:04:26;;;;;;;7.87;2.30;;;;;;;14.46;100.00;100527.63;5589964;31;33948;-68
2023/09/01 03:07:29;;;;;;;4.68;2.45;;;;;;;14.43;100.00;100534.16;5589807;31;35111;-68
2023/09/01 03:10:32;;;;;;;4.15;2.85;;;;;;;14.41;100.00;100538.03;5589421;31;33799;-68
2023/09/01 03:13:35;;;;;;;7.30;2.53;;;;;;;14.38;100.00;100533.88;5589830;31;33829;-68
2023/09/01 03:16:37;;;;;;;6.65;2.40;;;;;;;14.37;100.00;100534.09;5590389;31;33848;-68
2023/09/01 03:19:40;;;;;;;4.03;2.25;;;;;;;14.38;100.00;100528.53;5589947;31;34088;-68
2023/09/01 03:22:43;;;;;;;9.35;2.50;;;;;;;14.36;100.00;100535.94;5589722;31;33995;-68
2023/09/01 03:25:55;;;;;;;4.47;2.22;;;;;;;14.35;100.00;100536.91;5589951;31;33366;-68
2023/09/01 03:28:59;;;;;;;6.93;2.83;;;;;;;14.37;100.00;100540.25;5589753;31;34468;-68
2023/09/01 03:32:04;;;;;;;4.65;2.25;;;;;;;14.38;100.00;100538.41;5589679;31;34930;-68
2023/09/01 03:35:08;;;;;;;4.75;2.70;;;;;;;14.56;100.00;100549.50;5589731;31;33851;-68
2023/09/01 03:38:10;;;;;;;4.50;2.40;;;;;;;14.63;100.00;100547.69;5588908;31;34007;-68
2023/09/01 03:41:14;;;;;;;5.18;2.30;;;;;;;14.73;100.00;100553.56;5589422;31;34491;-70
2023/09/01 03:44:17;;;;;;;4.55;2.65;;;;;;;14.93;100.00;100556.41;5589454;31;33918;-69
2023/09/01 03:47:20;;;;;;;3.90;2.10;;;;;;;14.90;100.00;100560.31;5589620;31;33896;-71
2023/09/01 03:50:22;;;;;;;4.30;2.47;;;;;;;14.84;100.00;100561.06;5589542;31;34050;-69
2023/09/01 03:53:25;;;;;;;6.47;2.50;;;;;;;14.91;100.00;100553.94;5589648;31;33854;-69
2023/09/01 03:56:28;;;;;;;8.65;2.37;;;;;;;14.90;100.00;100563.00;5589514;31;34581;-68
2023/09/01 03:59:31;;;;;;;6.53;2.25;;;;;;;14.94;100.00;100553.56;5589935;31;33942;-67
2023/09/01 04:02:34;;;;;;;3.35;2.28;;;;;;;15.03;100.00;100556.94;5589079;31;33897;-67
2023/09/01 04:05:37;;;;;;;2.30;1.70;;;;;;;15.03;100.00;100555.09;5589477;31;33922;-67
2023/09/01 04:08:40;;;;;;;6.90;2.50;;;;;;;15.07;100.00;100559.03;5588607;31;33366;-68
2023/09/01 04:11:43;;;;;;;6.55;2.67;;;;;;;15.08;100.00;100555.34;5589402;31;34897;-68
2023/09/01 04:14:45;;;;;;;5.45;2.40;;;;;;;15.08;100.00;100546.50;5589358;31;33892;-67
2023/09/01 04:17:48;;;;;;;5.37;2.40;;;;;;;15.23;100.00;100560.59;5588628;31;33778;-68
2023/09/01 04:20:53;;;;;;;5.30;2.30;;;;;;;15.19;100.00;100562.00;5589674;31;33180;-68
2023/09/01 04:23:56;;;;;;;4.45;2.53;;;;;;;15.25;100.00;100555.06;5588309;31;33896;-68
2023/09/01 04:26:59;;;;;;;4.40;2.20;;;;;;;15.34;100.00;100557.41;5589675;31;34521;-68
2023/09/01 04:30:03;;;;;;;4.85;2.47;;;;;;;15.43;100.00;100558.91;5588274;31;32330;-68
2023/09/01 04:33:12;;;;;;;6.12;2.50;;;;;;;15.47;100.00;100565.50;5589027;31;34735;-68
2023/09/01 04:36:15;;;;;;;4.95;2.50;;;;;;;15.49;100.00;100565.31;5589464;31;33861;-68
2023/09/01 04:39:18;;;;;;;3.58;2.35;;;;;;;15.58;100.00;100565.00;5588702;31;35197;-68
2023/09/01 04:42:21;;;;;;;4.70;2.40;;;;;;;15.71;100.00;100568.78;5588700;31;34466;-67
2023/09/01 04:45:23;;;;;;;5.62;2.70;;;;;;;15.68;100.00;100567.34;5588983;31;34968;-68
2023/09/01 04:48:27;;;;;;;5.72;2.30;;;;;;;15.75;100.00;100562.84;5588222;31;33805;-67
2023/09/01 04:51:30;;;;;;;4.95;2.50;;;;;;;15.84;100.00;100574.19;5588741;31;34818;-67
2023/09/01 04:54:32;;;;;;;3.80;2.40;;;;;;;15.93;100.00;100564.97;5588797;31;33939;-67
2023/09/01 04:57:36;;;;;;;7.15;2.37;;;;;;;16.02;100.00;100561.94;5589037;31;34984;-67
2023/09/01 05:00:39;;;;;;;8.57;2.40;;;;;;;16.07;100.00;100558.69;5588542;31;34904;-67
2023/09/01 05:03:41;;;;;;;5.22;2.70;;;;;;;16.15;100.00;100558.53;5588939;31;33818;-68
2023/09/01 05:06:44;;;;;;;10.63;3.35;;;;;;;16.27;100.00;100562.25;5588999;31;33818;-67
2023/09/01 05:09:48;;;;;;;9.85;2.70;;;;;;;16.29;100.00;100570.09;5588247;31;34059;-67
2023/09/01 05:12:51;;;;;;;4.93;2.97;;;;;;;16.38;100.00;100580.44;5588554;31;33789;-67
2023/09/01 05:15:54;;;;;;;6.80;2.80;;;;;;;16.51;100.00;100577.78;5588044;31;35087;-68
2023/09/01 05:18:57;;;;;;;5.45;2.80;;;;;;;16.63;100.00;100577.25;5587477;31;33882;-69
2023/09/01 05:21:59;;;;;;;11.48;3.28;;;;;;;16.75;100.00;100589.84;5588062;31;33833;-69
2023/09/01 05:25:03;;;;;;;8.10;2.90;;;;;;;16.82;100.00;100582.66;5588284;31;33783;-69
2023/09/01 05:28:06;;;;;;;6.12;3.08;;;;;;;16.98;100.00;100592.16;5587551;31;34523;-69
2023/09/01 05:31:09;;;;;;;5.62;2.90;;;;;;;17.03;100.00;100588.88;5587738;31;34087;-69
2023/09/01 05:34:13;;;;;;;7.18;2.87;;;;;;;17.13;100.00;100586.63;5587661;31;33948;-69
2023/09/01 05:37:16;;;;;;;7.30;3.12;;;;;;;17.29;100.00;100589.69;5590089;31;34047;-70
2023/09/01 05:40:19;;;;;;;6.68;3.10;;;;;;;17.43;100.00;100584.34;5589533;31;34533;-69
2023/09/01 05:43:22;;;;;;;7.45;3.10;;;;;;;17.36;100.00;100595.91;5590252;31;34566;-69
2023/09/01 05:46:25;;;;;;;7.15;2.83;;;;;;;17.53;100.00;100598.16;5590328;31;34571;-69
2023/09/01 05:49:30;;;;;;;6.40;3.15;;;;;;;17.68;100.00;100594.25;5589789;31;33940;-69
2023/09/01 05:52:33;;;;;;;7.93;3.22;;;;;;;17.99;100.00;100595.44;5589225;31;33479;-70
2023/09/01 05:55:37;;;;;;;9.73;3.10;;;;;;;18.19;100.00;100605.09;5589601;31;34039;-69
2023/09/01 05:58:39;;;;;;;6.37;2.60;;;;;;;17.85;100.00;100604.56;5590221;31;33823;-69
2023/09/01 06:01:42;;;;;;;6.90;2.42;;;;;;;17.80;100.00;100615.91;5589919;31;33788;-67
2023/09/01 06:04:45;;;;;;;10.90;2.70;;;;;;;17.92;100.00;100608.84;5589967;31;34554;-68
2023/09/01 06:07:48;;;;;;;9.30;2.72;;;;;;;17.88;100.00;100604.94;5589936;31;34164;-68
2023/09/01 06:11:03;;;;;;;7.97;2.60;;;;;;;18.17;100.00;100609.81;5589984;31;34104;-68
2023/09/01 06:14:06;;;;;;;3.92;2.22;;;;;;;18.65;100.00;100607.59;5589857;31;33888;-69
2023/09/01 06:17:09;;;;;;;5.15;2.42;;;;;;;18.46;100.00;100604.97;5590041;31;33919;-68
2023/09/01 06:20:12;;;;;;;3.78;2.40;;;;;;;18.51;100.00;100607.84;5590319;31;35094;-69
2023/09/01 06:23:21;;;;;;;8.57;3.87;;;;;;;18.56;100.00;100610.72;5588141;31;34246;-68
2023/09/01 06:26:24;;;;;;;11.15;2.92;;;;;;;18.49;100.00;100599.19;5589416;31;34103;-68
2023/09/01 06:29:27;;;;;;;8.40;2.92;;;;;;;18.52;100.00;100598.75;5589894;31;33807;-69
2023/09/01 06:32:29;;;;;;;8.27;2.87;;;;;;;18.64;100.00;100594.34;5590134;31;33873;-69
2023/09/01 06:35:32;;;;;;;12.40;2.80;;;;;;;18.76;100.00;100594.50;5589690;31;33857;-69
2023/09/01 06:38:35;;;;;;;5.57;2.60;;;;;;;18.94;100.00;100594.59;5589826;31;34600;-69
2023/09/01 06:41:38;;;;;;;6.57;2.60;;;;;;;19.17;100.00;100597.53;5589931;31;34731;-69
2023/09/01 06:44:41;;;;;;;9.70;2.65;;;;;;;19.52;100.00;100600.59;5588534;31;33867;-69
2023/09/01 06:47:44;;;;;;;7.15;2.95;;;;;;;20.43;100.00;100610.66;5587174;31;34133;-68
2023/09/01 06:50:47;;;;;;;7.68;3.30;;;;;;;21.38;100.00;100611.56;5589171;31;34616;-69
2023/09/01 06:53:49;;;;;;;10.77;3.58;;;;;;;22.15;93.38;100617.69;5589796;31;34454;-69
2023/09/01 06:56:52;;;;;;;10.27;3.70;;;;;;;22.77;83.27;100618.69;5589869;31;34005;-69
2023/09/01 06:59:55;;;;;;;13.15;3.97;;;;;;;23.02;78.37;100632.69;5588917;31;33942;-70
2023/09/01 07:02:58;;;;;;;10.27;3.50;;;;;;;23.14;77.84;100636.16;5590093;31;34543;-69
2023/09/01 07:06:01;;;;;;;9.57;3.80;;;;;;;23.61;76.84;100635.91;5589610;31;33916;-70
2023/09/01 07:09:04;;;;;;;11.00;3.85;;;;;;;23.74;75.43;100639.06;5576177;31;34556;-69
2023/09/01 07:12:07;;;;;;;8.43;3.45;;;;;;;24.58;69.78;100649.75;5589835;31;34276;-69
2023/09/01 07:15:10;;;;;;;12.07;3.53;;;;;;;23.46;71.95;100649.19;5590014;31;33830;-70
2023/09/01 07:18:13;;;;;;;6.43;2.90;;;;;;;24.21;74.11;100642.22;5589823;31;34020;-69
2023/09/01 07:21:20;;;;;;;8.63;3.50;;;;;;;24.72;67.38;100647.44;5589400;31;34803;-70
2023/09/01 07:24:23;;;;;;;8.55;3.08;;;;;;;25.77;61.17;100649.56;5589702;31;34596;-70
2023/09/01 07:27:26;;;;;;;9.38;3.03;;;;;;;25.30;61.33;100655.69;5588675;31;34157;-70
2023/09/01 07:30:32;;;;;;;6.97;2.70;;;;;;;26.58;57.12;100653.56;5589964;31;33743;-70
2023/09/01 07:33:36;;;;;;;5.93;2.58;;;;;;;27.61;52.42;100658.97;5588783;31;35065;-69
2023/09/01 07:36:38;;;;;;;9.75;3.55;;;;;;;27.59;53.38;100651.03;5589826;31;33801;-70
2023/09/01 07:39:41;;;;;;;9.10;3.30;;;;;;;28.57;49.35;100663.38;5588694;31;33938;-70
2023/09/01 07:42:44;;;;;;;9.00;4.20;;;;;;;28.08;49.45;100661.34;5589141;31;33669;-70
2023/09/01 07:45:46;;;;;;;11.75;3.62;;;;;;;28.67;48.04;100657.87;5585027;31;134955;-70
2023/09/01 07:48:49;;;;;;;7.30;3.28;;;;;;;28.42;47.76;100659.62;5589436;31;33735;-70
2023/09/01 07:51:52;;;;;;;13.07;3.12;;;;;;;26.45;53.30;100650.50;5589413;31;34082;-71
2023/09/01 07:54:55;;;;;;;6.78;3.05;;;;;;;25.57;58.33;100655.66;5588593;31;33989;-71
2023/09/01 07:57:58;;;;;;;7.15;3.33;;;;;;;26.34;55.12;100644.19;5587438;31;33862;-71
2023/09/01 08:01:01;;;;;;;9.80;3.20;;;;;;;28.16;50.50;100651.81;5589686;31;33911;-72
2023/09/01 08:04:05;;;;;;;7.80;3.25;;;;;;;28.72;48.22;100653.25;5588630;31;33804;-71
2023/09/01 08:07:08;;;;;;;7.65;3.62;;;;;;;27.90;47.87;100657.28;5589266;31;34796;-72
2023/09/01 08:10:11;;;;;;;6.65;3.00;;;;;;;26.74;52.66;100654.44;5589504;31;34039;-70
2023/09/01 08:13:13;;;;;;;8.07;2.92;;;;;;;25.94;60.26;100659.22;5589150;31;34004;-70
2023/09/01 08:16:17;;;;;;;8.88;2.53;;;;;;;26.52;57.94;100657.37;5589538;31;34466;-71
2023/09/01 08:19:19;;;;;;;5.07;2.60;;;;;;;27.60;56.83;100657.31;5589343;31;33768;-72
2023/09/01 08:22:22;;;;;;;6.90;2.33;;;;;;;28.28;48.75;100663.22;5589299;31;34826;-70
2023/09/01 08:25:26;;;;;;;8.90;2.58;;;;;;;27.78;52.59;100661.41;5588917;31;33922;-73
2023/09/01 08:28:29;;;;;;;8.45;2.58;;;;;;;27.21;53.15;100662.44;5589013;31;33888;-71
2023/09/01 08:31:34;;;;;;;8.82;2.40;;;;;;;25.92;58.80;100660.53;5589157;31;33881;-72
2023/09/01 08:34:37;;;;;;;7.12;1.98;;;;;;;25.74;63.09;100652.81;5589022;31;33953;-71
2023/09/01 08:37:40;;;;;;;6.12;1.83;;;;;;;25.39;56.54;100666.91;5588930;31;33794;-70
2023/09/01 08:40:43;;;;;;;7.18;1.92;;;;;;;25.12;57.63;100658.78;5588932;31;33932;-70
2023/09/01 08:43:48;;;;;;;5.40;2.10;;;;;;;24.98;57.55;100647.50;5587899;31;34161;-69
2023/09/01 08:46:57;;;;;;;3.75;1.83;;;;;;;24.58;58.51;100647.03;5588843;31;34557;-70
2023/09/01 08:49:59;;;;;;;5.25;2.33;;;;;;;24.78;58.65;100652.69;5588736;31;34853;-70
2023/09/01 08:53:03;;;;;;;7.12;2.37;;;;;;;24.20;64.07;100658.75;5588971;31;34410;-71
2023/09/01 08:56:06;;;;;;;9.00;2.20;;;;;;;24.22;66.43;100652.00;5588805;31;34480;-70
2023/09/01 08:59:09;;;;;;;9.07;2.15;;;;;;;23.83;68.82;100653.84;5588698;31;33949;-70
2023/09/01 09:02:11;;;;;;;4.70;1.85;;;;;;;23.81;70.53;100658.72;5588959;31;33837;-70
2023/09/01 09:05:15;;;;;;;6.60;1.90;;;;;;;23.81;69.83;100650.59;5588416;31;33792;-69
2023/09/01 09:08:20;;;;;;;6.03;2.35;;;;;;;23.83;67.85;100648.44;5588760;31;33723;-70
2023/09/01 09:11:23;;;;;;;5.95;2.45;;;;;;;23.67;70.94;100637.63;5590677;31;34453;-70
2023/09/01 09:14:27;;;;;;;5.15;2.53;;;;;;;23.71;79.19;100641.47;5590945;31;34978;-70
2023/09/01 09:17:51;;;;;;;4.50;2.47;;;;;;;24.29;70.37;100645.56;5589979;31;33892;-70
2023/09/01 09:20:54;;;;;;;4.68;2.03;;;;;;;24.89;64.04;100640.87;5591215;31;34095;-71
2023/09/01 09:24:02;;;;;;;13.85;2.20;;;;;;;24.89;67.26;100638.16;5590870;31;33761;-71
2023/09/01 09:27:25;;;;;;;6.22;2.17;;;;;;;25.24;65.96;100648.56;5590677;31;34524;-70
2023/09/01 09:30:28;;;;;;;5.43;2.20;;;;;;;25.00;65.52;100633.66;5591245;31;32509;-69
2023/09/01 09:33:33;;;;;;;4.75;2.10;;;;;;;24.72;63.83;100639.31;5589874;31;34872;-69
2023/09/01 09:36:37;;;;;;;5.30;1.80;;;;;;;24.46;64.47;100641.72;5590563;31;33906;-70
2023/09/01 09:39:41;;;;;;;5.87;1.80;;;;;;;24.54;68.66;100645.91;5593503;31;33908;-70
2023/09/01 09:42:46;;;;;;;3.25;1.83;;;;;;;24.94;65.68;100642.81;5590373;31;34052;-69
2023/09/01 09:45:52;;;;;;;7.15;1.90;;;;;;;25.29;60.39;100645.91;5590320;31;33986;-72
2023/09/01 09:48:58;;;;;;;7.57;1.90;;;;;;;24.77;63.50;100645.62;5589858;31;33860;-72
2023/09/01 09:52:03;;;;;;;9.43;2.05;;;;;;;25.28;62.67;100641.53;5590215;31;34927;-72
2023/09/01 09:55:11;;;;;;;5.55;1.98;;;;;;;25.05;61.30;100633.72;5590273;31;33759;-71
2023/09/01 09:58:16;;;;;;;3.50;2.00;;;;;;;25.26;61.76;100638.28;5591038;31;33310;-71
2023/09/01 10:01:22;;;;;;;4.90;1.70;;;;;;;25.38;60.20;100638.91;5590325;31;34503;-71
2023/09/01 10:04:27;;;;;;;4.07;2.65;;;;;;;26.03;59.64;100629.63;5589377;31;33898;-68
2023/09/01 10:07:32;;;;;;;7.28;2.10;;;;;;;26.16;54.37;100633.75;5590049;31;33910;-70
2023/09/01 10:10:37;;;;;;;2.95;1.90;;;;;;;25.74;58.05;100623.75;5590071;31;34552;-69
2023/09/01 10:13:44;;;;;;;4.85;1.98;;;;;;;26.07;56.29;100627.19;5590032;31;33120;-69
2023/09/01 10:16:47;;;;;;;3.90;1.70;;;;;;;26.71;57.85;100634.03;5589836;31;34788;-68
2023/09/01 10:19:50;;;;;;;4.57;1.90;;;;;;;26.21;53.21;100631.06;5590206;31;33959;-71
2023/09/01 10:22:54;;;;;;;6.70;1.87;;;;;;;26.43;52.30;100625.50;5588133;31;34831;-70
2023/09/01 10:26:17;;;;;;;4.50;1.73;;;;;;;26.59;51.77;100632.59;5589195;31;34108;-67
2023/09/01 10:29:36;;;;;;;2.50;1.80;;;;;;;26.02;52.88;100624.44;5589689;31;33892;-70
2023/09/01 10:32:38;;;;;;;3.35;1.70;;;;;;;26.08;53.14;100623.41;5589412;31;35225;-69
2023/09/01 10:35:51;;;;;;;4.37;1.50;;;;;;;26.06;52.91;100630.97;5589124;31;34788;-69
2023/09/01 10:38:54;;;;;;;4.07;1.70;;;;;;;27.00;51.61;100628.94;5589333;31;34468;-70
2023/09/01 10:42:02;;;;;;;6.20;1.92;;;;;;;27.04;49.99;100627.31;5589646;31;33890;-71
2023/09/01 10:45:06;;;;;;;5.83;1.73;;;;;;;27.33;50.08;100622.16;5590113;31;34438;-71
2023/09/01 10:48:11;;;;;;;4.87;1.77;;;;;;;26.82;51.21;100607.63;5589418;31;34371;-70
2023/09/01 10:51:21;;;;;;;3.15;1.70;;;;;;;27.04;52.61;100619.16;5589443;31;33985;-70
2023/09/01 10:54:27;;;;;;;3.67;2.00;;;;;;;26.75;52.21;100612.53;5588922;31;33800;-71
2023/09/01 10:57:49;;;;;;;3.72;1.87;;;;;;;26.57;54.01;100608.41;5589262;31;34539;-71
2023/09/01 11:00:52;;;;;;;8.95;2.35;;;;;;;26.09;54.83;100601.38;5589542;31;33837;-71
2023/09/01 11:04:16;;;;;;;4.28;1.98;;;;;;;26.05;56.39;100608.41;5589331;31;33973;-70
2023/09/01 11:07:19;;;;;;;5.80;2.22;;;;;;;26.32;55.44;100611.84;5588913;31;34027;-70
2023/09/01 11:10:25;;;;;;;1.98;1.77;;;;;;;27.83;50.61;100610.41;5589269;31;33808;-70
2023/09/01 11:13:28;;;;;;;3.00;1.80;;;;;;;28.79;49.03;100603.78;5589883;31;33869;-69
2023/09/01 11:16:30;;;;;;;3.85;1.87;;;;;;;29.39;45.80;100618.12;5589215;31;33871;-72
2023/09/01 11:19:47;;;;;;;3.55;1.90;;;;;;;28.89;46.27;100610.00;5589319;31;34710;-70
2023/09/01 11:22:50;;;;;;;5.47;1.70;;;;;;;30.47;44.46;100603.84;5589448;31;33812;-70
2023/09/01 11:26:02;;;;;;;4.62;1.60;;;;;;;30.04;42.56;100611.22;5589981;31;33867;-69
2023/09/01 11:29:11;;;;;;;4.55;1.40;;;;;;;28.63;43.58;100613.13;5589618;31;33836;-69
2023/09/01 11:32:25;;;;;;;3.00;1.48;;;;;;;27.90;42.49;100604.66;5588857;31;33795;-69
2023/09/01 11:35:29;;;;;;;5.12;1.75;;;;;;;27.24;43.76;100605.53;5589640;31;34347;-69
2023/09/01 11:38:34;;;;;;;2.80;1.45;;;;;;;26.02;47.30;100595.34;5589767;31;33877;-68
2023/09/01 11:41:37;;;;;;;6.43;1.73;;;;;;;25.45;48.97;100598.78;5589853;31;33833;-69
2023/09/01 11:44:41;;;;;;;4.87;1.48;;;;;;;25.70;48.92;100600.88;5589198;31;34021;-69
2023/09/01 11:47:43;;;;;;;4.68;1.62;;;;;;;25.77;48.86;100595.19;5589157;31;34668;-68
2023/09/01 11:50:46;;;;;;;2.60;1.60;;;;;;;25.99;48.64;100598.59;5589208;31;34271;-70
2023/09/01 11:53:51;;;;;;;3.10;1.60;;;;;;;26.64;47.87;100586.34;5588410;31;33893;-70
2023/09/01 11:56:54;;;;;;;5.15;1.40;;;;;;;27.64;46.29;100587.56;5589122;31;33802;-72
2023/09/01 11:59:57;;;;;;;2.20;1.30;;;;;;;28.33;45.95;100584.06;5588846;31;33886;-70
2023/09/01 12:03:03;;;;;;;2.90;1.45;;;;;;;28.74;42.07;100585.53;5589052;31;34549;-72
2023/09/01 12:06:20;;;;;;;3.20;1.50;;;;;;;29.58;42.29;100578.84;5589021;31;33836;-70
2023/09/01 12:09:22;;;;;;;2.42;1.30;;;;;;;30.00;39.21;100580.88;5588847;31;34504;-70
2023/09/01 12:12:37;;;;;;;6.37;1.58;;;;;;;29.84;39.24;100581.31;5588689;31;33789;-71
2023/09/01 12:15:59;;;;;;;3.72;1.23;;;;;;;29.83;40.39;100579.66;5588677;31;33138;-71
2023/09/01 12:19:03;;;;;;;2.30;1.48;;;;;;;32.74;36.22;100574.28;5589072;31;34156;-69
2023/09/01 12:22:06;;;;;;;3.50;1.20;;;;;;;32.85;34.15;100583.09;5589097;31;34003;-70
2023/09/01 12:25:09;;;;;;;2.45;1.30;;;;;;;31.77;34.99;100571.91;5588965;31;33790;-71
2023/09/01 12:28:11;;;;;;;3.53;1.30;;;;;;;32.49;34.40;100581.12;5588387;31;34213;-70
2023/09/01 12:31:14;;;;;;;2.95;1.30;;;;;;;32.77;34.13;100570.94;5589090;31;33817;-69
2023/09/01 12:34:17;;;;;;;2.17;1.37;;;;;;;32.83;33.99;100574.34;5588288;31;33903;-70
2023/09/01 12:37:20;;;;;;;3.95;1.52;;;;;;;33.69;32.96;100574.97;5588974;31;33921;-69
2023/09/01 12:40:23;;;;;;;4.22;1.35;;;;;;;34.55;31.60;100564.22;5588856;31;34550;-71
2023/09/01 12:43:26;;;;;;;4.45;1.30;;;;;;;33.90;31.86;100570.50;5588430;31;34580;-72
2023/09/01 12:46:28;;;;;;;4.12;1.20;;;;;;;34.83;32.30;100560.00;5588379;31;33794;-70
2023/09/01 12:49:31;;;;;;;3.30;1.50;;;;;;;37.22;29.15;100567.47;5588846;31;34824;-70
2023/09/01 12:52:34;;;;;;;4.10;1.30;;;;;;;36.32;28.68;100564.41;5588523;31;35428;-72
2023/09/01 12:55:37;;;;;;;4.07;1.50;;;;;;;33.95;30.97;100562.09;5587769;31;33856;-70
2023/09/01 12:58:40;;;;;;;2.03;1.08;;;;;;;32.17;34.12;100557.41;5588598;31;34410;-70
2023/09/01 13:01:43;;;;;;;1.40;1.20;;;;;;;31.73;34.22;100552.50;5588535;31;33807;-71
2023/09/01 13:04:46;;;;;;;2.35;1.27;;;;;;;30.40;38.32;100549.47;5587824;31;33925;-70
2023/09/01 13:07:49;;;;;;;1.67;1.17;;;;;;;29.27;37.95;100545.50;5588794;31;34515;-71
2023/09/01 13:10:52;;;;;;;4.72;1.40;;;;;;;29.32;38.39;100550.13;5588484;31;33959;-71
2023/09/01 13:13:55;;;;;;;2.58;1.20;;;;;;;28.22;39.73;100550.59;5588064;31;33877;-70
2023/09/01 13:16:58;;;;;;;2.03;1.40;;;;;;;29.17;38.64;100551.06;5588249;31;34428;-70
2023/09/01 13:20:03;;;;;;;3.72;1.40;;;;;;;29.10;38.49;100541.53;5588748;31;34812;-69
2023/09/01 13:23:06;;;;;;;3.75;1.45;;;;;;;29.79;37.67;100544.72;5588121;31;35116;-70
2023/09/01 13:26:09;;;;;;;3.65;1.40;;;;;;;31.56;33.77;100535.84;5587484;31;33854;-70
2023/09/01 13:29:12;;;;;;;3.28;1.23;;;;;;;34.70;29.61;100553.56;5587690;31;33994;-72
2023/09/01 13:32:15;;;;;;;2.15;1.23;;;;;;;33.79;29.90;100547.16;5587808;31;33813;-70
2023/09/01 13:35:18;;;;;;;3.90;1.20;;;;;;;33.70;31.34;100538.06;5587593;31;33956;-70
2023/09/01 13:38:21;;;;;;;2.47;1.15;;;;;;;34.38;30.12;100545.69;5587758;31;33885;-70
2023/09/01 13:41:23;;;;;;;3.37;1.30;;;;;;;36.52;27.22;100540.72;5587508;31;34510;-69
2023/09/01 13:44:26;;;;;;;1.83;1.30;;;;;;;35.42;28.16;100530.72;5587494;31;33840;-71
2023/09/01 13:47:29;;;;;;;2.90;1.15;;;;;;;34.52;29.75;100529.03;5587060;31;34894;-70
2023/09/01 13:50:32;;;;;;;2.37;1.30;;;;;;;32.76;31.74;100523.41;5586663;31;34083;-68
2023/09/01 13:53:35;;;;;;;3.37;1.27;;;;;;;31.30;34.12;100519.00;5586542;31;34060;-69
2023/09/01 13:56:38;;;;;;;1.52;1.20;;;;;;;33.30;32.16;100509.69;5587825;31;33921;-72
2023/09/01 13:59:41;;;;;;;1.73;1.40;;;;;;;33.72;30.63;100517.34;5589547;31;34400;-72
2023/09/01 14:02:44;;;;;;;7.62;1.50;;;;;;;31.78;33.47;100515.94;5589280;31;34810;-72
2023/09/01 14:05:47;;;;;;;4.80;1.40;;;;;;;33.95;31.65;100524.38;5589812;31;34590;-70
2023/09/01 14:08:49;;;;;;;2.33;1.20;;;;;;;33.70;30.66;100524.28;5589893;31;34032;-68
2023/09/01 14:11:53;;;;;;;4.93;1.20;;;;;;;32.33;31.00;100517.53;5590104;31;33845;-69
2023/09/01 14:14:56;;;;;;;4.47;1.42;;;;;;;31.21;32.82;100515.34;5589713;31;34138;-70